Apache, Oklahoma
Current Conditions -  °F | °C
As of 2:58 PM on Saturday 20 Dec 2014 (Local Time) from KFSI Reporting Station
Overcast Overcast  
Wind Chill: 38°   Ceiling: 1400
Heat Index: 44°   Visibility: 10mi
Dew Point: 39°   Wind: 10mph
Humidity: 84%   Direction: 170°S
Pressure: 30.14"   Gusts: NA
Location:  34.89°N, 98.37°W
Report Text: KFSI 202058Z AUTO 17009KT 10SM BKN014 OVC021 07/04 A3014 RMK AO2 SLP210 T00660041 57018
Loading
Personal Weather Stations






























Interactive Weather Map New forecast layout! Learn more

10-Day Weather Forecast

Advertisements
Track Severe Weather on mobile